createdAt,value
2023-01-18T00:01:29.862Z,100.00
2023-01-18T00:04:29.865Z,100.00
2023-01-18T00:07:29.867Z,100.00
2023-01-18T00:10:29.893Z,100.00
2023-01-18T00:13:29.880Z,100.00
2023-01-18T00:16:32.916Z,100.00
2023-01-18T00:19:32.860Z,100.00
2023-01-18T00:22:32.888Z,100.00
2023-01-18T00:25:33.905Z,100.00
2023-01-18T00:28:36.893Z,100.00
2023-01-18T00:31:36.900Z,100.00
2023-01-18T00:34:36.891Z,100.00
2023-01-18T00:37:40.852Z,100.00
2023-01-18T00:40:40.831Z,100.00
2023-01-18T00:43:45.881Z,100.00
2023-01-18T00:46:45.869Z,100.00
2023-01-18T00:49:45.863Z,100.00
2023-01-18T00:52:46.889Z,100.00
2023-01-18T00:55:46.906Z,100.00
2023-01-18T00:58:46.893Z,100.00
2023-01-18T01:01:46.940Z,100.00
2023-01-18T01:05:04.898Z,100.00
2023-01-18T01:08:04.904Z,100.00
2023-01-18T01:11:06.887Z,100.00
2023-01-18T01:14:24.906Z,100.00
2023-01-18T01:17:42.866Z,100.00
2023-01-18T01:21:00.872Z,100.00
2023-01-18T01:24:18.902Z,100.00
2023-01-18T01:27:18.847Z,100.00
2023-01-18T01:30:18.892Z,100.00
2023-01-18T01:33:18.975Z,100.00
2023-01-18T01:36:20.887Z,100.00
2023-01-18T01:39:20.853Z,100.00
2023-01-18T01:42:24.900Z,100.00
2023-01-18T01:45:25.856Z,100.00
2023-01-18T01:48:25.904Z,100.00
2023-01-18T01:51:25.957Z,100.00
2023-01-18T01:54:33.870Z,100.00
2023-01-18T01:57:40.881Z,100.00
2023-01-18T02:00:40.879Z,100.00
2023-01-18T02:03:40.894Z,100.00
2023-01-18T02:06:46.854Z,100.00
2023-01-18T02:09:46.893Z,100.00
2023-01-18T02:12:46.846Z,100.00
2023-01-18T02:15:59.258Z,100.00
2023-01-18T02:19:23.882Z,100.00
2023-01-18T02:22:48.857Z,100.00
2023-01-18T02:25:58.861Z,100.00
2023-01-18T02:29:12.871Z,100.00
2023-01-18T02:32:20.853Z,100.00
2023-01-18T02:35:23.865Z,100.00
2023-01-18T02:38:27.856Z,100.00
2023-01-18T02:42:16.893Z,100.00
2023-01-18T02:45:38.896Z,100.00
2023-01-18T02:48:45.845Z,100.00
2023-01-18T02:51:45.889Z,100.00
2023-01-18T02:54:48.897Z,100.00
2023-01-18T02:57:48.876Z,100.00
2023-01-18T03:00:50.876Z,100.00
2023-01-18T03:03:45.925Z,100.00
2023-01-18T03:06:46.853Z,100.00
2023-01-18T03:09:46.881Z,100.00
2023-01-18T03:12:59.110Z,100.00
2023-01-18T03:15:59.932Z,100.00
2023-01-18T03:19:09.893Z,100.00
2023-01-18T03:22:09.832Z,100.00
2023-01-18T03:25:09.900Z,100.00
2023-01-18T03:28:28.933Z,100.00
2023-01-18T03:31:49.873Z,100.00
2023-01-18T03:35:09.889Z,100.00
2023-01-18T03:38:10.892Z,100.00
2023-01-18T03:41:11.875Z,100.00
2023-01-18T03:44:14.925Z,100.00
2023-01-18T03:47:15.888Z,100.00
2023-01-18T03:50:15.889Z,100.00
2023-01-18T03:53:18.885Z,100.00
2023-01-18T03:56:23.895Z,100.00
2023-01-18T03:59:23.899Z,100.00
2023-01-18T04:02:23.954Z,100.00
2023-01-18T04:05:23.891Z,100.00
2023-01-18T04:08:23.864Z,100.00
2023-01-18T04:11:23.868Z,100.00
2023-01-18T04:14:23.889Z,100.00
2023-01-18T04:17:23.917Z,100.00
2023-01-18T04:20:23.844Z,100.00
2023-01-18T04:23:24.905Z,100.00
2023-01-18T04:26:25.890Z,100.00
2023-01-18T04:29:18.936Z,100.00
2023-01-18T04:32:11.883Z,100.00
2023-01-18T04:35:11.840Z,100.00
2023-01-18T04:38:11.867Z,100.00
2023-01-18T04:41:17.028Z,100.00
2023-01-18T04:44:16.906Z,100.00
2023-01-18T04:47:16.855Z,100.00
2023-01-18T04:50:16.875Z,100.00
2023-01-18T04:53:16.895Z,100.00
2023-01-18T04:56:16.904Z,100.00
2023-01-18T04:59:16.954Z,100.00
2023-01-18T05:02:16.881Z,100.00
2023-01-18T05:05:16.877Z,100.00
2023-01-18T05:08:16.890Z,100.00
2023-01-18T05:11:17.906Z,100.00
2023-01-18T05:14:17.856Z,100.00
2023-01-18T05:17:17.866Z,100.00
2023-01-18T05:20:18.871Z,100.00
2023-01-18T05:23:20.850Z,100.00
2023-01-18T05:26:20.900Z,100.00
2023-01-18T05:29:09.892Z,100.00
2023-01-18T05:32:09.843Z,100.00
2023-01-18T05:35:09.869Z,100.00
2023-01-18T05:38:09.843Z,100.00
2023-01-18T05:41:09.888Z,100.00
2023-01-18T05:44:09.881Z,100.00
2023-01-18T05:47:09.849Z,100.00
2023-01-18T05:50:09.865Z,100.00
2023-01-18T05:53:12.845Z,100.00
2023-01-18T05:56:15.946Z,100.00
2023-01-18T05:59:16.890Z,100.00
2023-01-18T06:02:18.845Z,100.00
2023-01-18T06:05:18.848Z,100.00
2023-01-18T06:08:18.891Z,100.00
2023-01-18T06:11:18.883Z,100.00
2023-01-18T06:14:18.862Z,100.00
2023-01-18T06:17:18.880Z,100.00
2023-01-18T06:20:19.884Z,100.00
2023-01-18T06:23:19.869Z,100.00
2023-01-18T06:26:22.967Z,100.00
2023-01-18T06:29:22.845Z,100.00
2023-01-18T06:32:23.844Z,100.00
2023-01-18T06:35:23.916Z,100.00
2023-01-18T06:38:25.942Z,100.00
2023-01-18T06:41:26.918Z,100.00
2023-01-18T06:44:28.888Z,100.00
2023-01-18T06:47:28.901Z,100.00
2023-01-18T06:50:29.885Z,100.00
2023-01-18T06:53:29.880Z,100.00
2023-01-18T06:56:52.927Z,100.00
2023-01-18T06:59:53.922Z,100.00
2023-01-18T07:02:54.847Z,100.00
2023-01-18T07:05:56.910Z,100.00
2023-01-18T07:08:58.462Z,100.00
2023-01-18T07:11:57.873Z,100.00
2023-01-18T07:15:09.859Z,100.00
2023-01-18T07:18:20.872Z,100.00
2023-01-18T07:21:20.875Z,100.00
2023-01-18T07:24:20.851Z,100.00
2023-01-18T07:27:20.881Z,100.00
2023-01-18T07:30:20.876Z,100.00
2023-01-18T07:33:22.146Z,100.00
2023-01-18T07:36:23.066Z,100.00
2023-01-18T07:39:22.859Z,100.00
2023-01-18T07:42:22.825Z,100.00
2023-01-18T07:45:23.913Z,100.00
2023-01-18T07:48:23.898Z,100.00
2023-01-18T07:51:23.868Z,100.00
2023-01-18T07:54:21.416Z,100.00
2023-01-18T07:57:25.052Z,100.00
2023-01-18T08:00:25.858Z,100.00
2023-01-18T08:03:30.960Z,100.00
2023-01-18T08:06:30.921Z,100.00
2023-01-18T08:09:30.894Z,100.00
2023-01-18T08:12:30.911Z,100.00
2023-01-18T08:15:31.036Z,100.00
2023-01-18T08:18:30.898Z,100.00
2023-01-18T08:21:30.848Z,100.00
2023-01-18T08:24:30.925Z,100.00
2023-01-18T08:27:30.886Z,100.00
2023-01-18T08:30:33.980Z,100.00
2023-01-18T08:33:34.857Z,100.00
2023-01-18T08:36:37.908Z,100.00
2023-01-18T08:39:37.854Z,100.00
2023-01-18T08:42:37.916Z,100.00
2023-01-18T08:45:37.908Z,100.00
2023-01-18T08:48:38.960Z,100.00
2023-01-18T08:51:43.873Z,100.00
2023-01-18T08:54:43.879Z,100.00
2023-01-18T08:57:46.632Z,100.00
2023-01-18T09:00:46.080Z,100.00
2023-01-18T09:03:46.858Z,100.00
2023-01-18T09:06:47.687Z,100.00
2023-01-18T09:09:47.891Z,100.00
2023-01-18T09:12:47.832Z,100.00
2023-01-18T09:15:48.936Z,100.00
2023-01-18T09:18:50.883Z,100.00
2023-01-18T09:21:52.871Z,100.00
2023-01-18T09:24:52.951Z,100.00
2023-01-18T09:27:52.952Z,100.00
2023-01-18T09:30:52.872Z,100.00
2023-01-18T09:33:54.280Z,100.00
2023-01-18T09:36:53.874Z,100.00
2023-01-18T09:39:54.875Z,100.00
2023-01-18T09:43:01.207Z,100.00
2023-01-18T09:46:01.856Z,100.00
2023-01-18T09:49:07.938Z,100.00
2023-01-18T09:52:25.966Z,100.00
2023-01-18T09:55:32.907Z,100.00
2023-01-18T09:59:03.869Z,100.00
2023-01-18T10:01:58.082Z,100.00
2023-01-18T10:04:45.982Z,100.00
2023-01-18T10:07:34.877Z,100.00
2023-01-18T10:10:28.904Z,100.00
2023-01-18T10:13:46.864Z,98.34
2023-01-18T10:16:47.961Z,93.17
2023-01-18T10:19:47.847Z,93.57
2023-01-18T10:23:10.856Z,89.73
2023-01-18T10:26:15.854Z,88.87
2023-01-18T10:29:29.864Z,90.48
2023-01-18T10:32:34.849Z,87.53
2023-01-18T10:35:47.885Z,89.63
2023-01-18T10:38:53.398Z,89.62
2023-01-18T10:41:52.961Z,91.38
2023-01-18T10:44:52.900Z,92.06
2023-01-18T10:47:57.222Z,94.66
2023-01-18T10:51:00.899Z,94.92
2023-01-18T10:54:06.102Z,97.06
2023-01-18T10:57:34.929Z,98.76
2023-01-18T11:00:47.935Z,98.91
2023-01-18T11:03:51.884Z,100.00
2023-01-18T11:07:06.097Z,100.00
2023-01-18T11:10:15.879Z,98.69
2023-01-18T11:13:16.877Z,96.67
2023-01-18T11:16:36.034Z,96.83
2023-01-18T11:19:35.906Z,95.47
2023-01-18T11:22:40.536Z,95.12
2023-01-18T11:25:43.946Z,93.20
2023-01-18T11:28:42.862Z,92.11
2023-01-18T11:31:45.952Z,89.86
2023-01-18T11:34:55.953Z,88.59
2023-01-18T11:37:57.520Z,90.49
2023-01-18T11:40:57.980Z,93.08
2023-01-18T11:44:11.912Z,96.39
2023-01-18T11:47:13.094Z,98.73
2023-01-18T11:50:22.433Z,100.00
2023-01-18T11:53:55.125Z,100.00
2023-01-18T11:57:08.861Z,100.00
2023-01-18T12:00:09.659Z,100.00
2023-01-18T12:03:33.962Z,100.00
2023-01-18T12:06:45.928Z,100.00
2023-01-18T12:10:13.215Z,100.00
2023-01-18T12:13:37.007Z,100.00
2023-01-18T12:16:55.895Z,100.00
2023-01-18T12:20:27.881Z,100.00
2023-01-18T12:23:34.862Z,100.00
2023-01-18T12:26:52.875Z,100.00
2023-01-18T12:30:20.903Z,100.00
2023-01-18T12:33:54.860Z,100.00
2023-01-18T12:37:18.904Z,100.00
2023-01-18T12:40:24.907Z,100.00
2023-01-18T12:43:44.872Z,100.00
2023-01-18T12:46:54.945Z,100.00
2023-01-18T12:50:03.904Z,100.00
2023-01-18T12:53:13.969Z,100.00
2023-01-18T12:56:16.834Z,100.00
2023-01-18T12:59:24.861Z,100.00
2023-01-18T13:03:00.842Z,100.00
2023-01-18T13:06:13.887Z,100.00
2023-01-18T13:09:20.056Z,100.00
2023-01-18T13:12:19.891Z,100.00
2023-01-18T13:15:36.887Z,100.00
2023-01-18T13:18:47.940Z,100.00
2023-01-18T13:22:11.853Z,100.00
2023-01-18T13:25:40.868Z,100.00
2023-01-18T13:28:40.848Z,100.00
2023-01-18T13:31:44.909Z,100.00
2023-01-18T13:34:48.787Z,100.00
2023-01-18T13:40:55.951Z,100.00
2023-01-18T13:43:58.830Z,100.00
2023-01-18T13:46:58.832Z,100.00
2023-01-18T13:49:59.909Z,100.00
2023-01-18T13:53:00.306Z,100.00
2023-01-18T13:55:59.886Z,100.00
2023-01-18T13:59:07.121Z,100.00
2023-01-18T14:02:49.273Z,100.00
2023-01-18T14:05:55.976Z,100.00
2023-01-18T14:09:03.884Z,100.00
2023-01-18T14:12:08.361Z,100.00
2023-01-18T14:15:10.923Z,100.00
2023-01-18T14:18:13.361Z,100.00
2023-01-18T14:21:16.869Z,100.00
2023-01-18T14:24:47.905Z,100.00
2023-01-18T14:27:56.860Z,100.00
2023-01-18T14:30:57.931Z,100.00
2023-01-18T14:33:57.922Z,100.00
2023-01-18T14:37:00.251Z,100.00
2023-01-18T14:39:59.987Z,100.00
2023-01-18T14:43:08.857Z,100.00
2023-01-18T14:46:12.909Z,100.00
2023-01-18T14:49:12.891Z,100.00
2023-01-18T14:52:14.896Z,100.00
2023-01-18T14:55:17.297Z,100.00
2023-01-18T14:58:23.829Z,100.00
2023-01-18T15:01:46.954Z,100.00
2023-01-18T15:04:50.872Z,100.00
2023-01-18T15:07:50.879Z,100.00
2023-01-18T15:10:50.902Z,100.00
2023-01-18T15:14:02.872Z,100.00
2023-01-18T15:16:59.995Z,100.00
2023-01-18T15:19:59.864Z,100.00
2023-01-18T15:23:00.254Z,100.00
2023-01-18T15:26:03.834Z,100.00
2023-01-18T15:29:03.912Z,100.00
2023-01-18T15:32:10.855Z,100.00
2023-01-18T15:35:11.897Z,100.00
2023-01-18T15:38:11.885Z,100.00
2023-01-18T15:41:15.866Z,100.00
2023-01-18T15:44:15.837Z,100.00
2023-01-18T15:47:15.851Z,100.00
2023-01-18T15:50:17.859Z,100.00
2023-01-18T15:53:18.861Z,100.00
2023-01-18T15:56:28.890Z,100.00
2023-01-18T15:59:33.835Z,100.00
2023-01-18T16:02:34.884Z,100.00
2023-01-18T16:05:36.833Z,100.00
2023-01-18T16:08:36.880Z,100.00
2023-01-18T16:11:58.925Z,100.00
2023-01-18T16:15:05.969Z,100.00
2023-01-18T16:18:24.969Z,100.00
2023-01-18T16:21:27.931Z,100.00
2023-01-18T16:24:38.957Z,100.00
2023-01-18T16:27:40.929Z,100.00
2023-01-18T16:30:50.949Z,100.00
2023-01-18T16:33:50.961Z,100.00
2023-01-18T16:36:50.915Z,100.00
2023-01-18T16:39:54.972Z,100.00
2023-01-18T16:43:21.943Z,100.00
2023-01-18T16:46:21.974Z,100.00
2023-01-18T16:49:27.948Z,100.00
2023-01-18T16:52:27.974Z,100.00
2023-01-18T16:55:29.891Z,100.00
2023-01-18T16:58:30.874Z,100.00
2023-01-18T17:01:30.985Z,100.00
2023-01-18T17:04:32.841Z,100.00
2023-01-18T17:07:32.878Z,100.00
2023-01-18T17:10:39.833Z,100.00
2023-01-18T17:13:39.885Z,100.00
2023-01-18T17:16:39.878Z,100.00
2023-01-18T17:19:43.924Z,100.00
2023-01-18T17:22:43.897Z,100.00
2023-01-18T17:25:43.879Z,100.00
2023-01-18T17:28:43.881Z,100.00
2023-01-18T17:31:51.992Z,100.00
2023-01-18T17:34:51.887Z,100.00
2023-01-18T17:37:57.484Z,100.00
2023-01-18T17:41:04.853Z,100.00
2023-01-18T17:44:05.877Z,100.00
2023-01-18T17:47:05.888Z,100.00
2023-01-18T17:50:05.925Z,100.00
2023-01-18T17:53:05.873Z,100.00
2023-01-18T17:56:05.876Z,100.00
2023-01-18T17:59:05.876Z,100.00
2023-01-18T18:02:05.929Z,100.00
2023-01-18T18:05:05.889Z,100.00
2023-01-18T18:08:05.856Z,100.00
2023-01-18T18:11:06.890Z,100.00
2023-01-18T18:17:23.878Z,100.00
2023-01-18T18:20:23.874Z,100.00
2023-01-18T18:23:23.854Z,100.00
2023-01-18T18:26:23.883Z,100.00
2023-01-18T18:29:23.868Z,100.00
2023-01-18T18:32:23.829Z,100.00
2023-01-18T18:35:26.168Z,100.00
2023-01-18T18:45:19.849Z,100.00
2023-01-18T18:48:21.840Z,100.00
2023-01-18T18:51:21.841Z,100.00
2023-01-18T18:54:23.843Z,100.00
2023-01-18T18:57:23.882Z,100.00
2023-01-18T19:00:23.831Z,100.00
2023-01-18T19:03:23.932Z,100.00
2023-01-18T19:06:24.824Z,100.00
2023-01-18T19:09:24.845Z,100.00
2023-01-18T19:12:24.834Z,100.00
2023-01-18T19:15:24.872Z,100.00
2023-01-18T19:18:24.876Z,100.00
2023-01-18T19:21:24.801Z,100.00
2023-01-18T19:24:24.878Z,100.00
2023-01-18T19:27:24.815Z,100.00
2023-01-18T19:30:25.838Z,100.00
2023-01-18T19:33:26.856Z,100.00
2023-01-18T19:36:28.873Z,100.00
2023-01-18T19:39:29.816Z,100.00
2023-01-18T19:42:22.878Z,100.00
2023-01-18T19:45:03.950Z,100.00
2023-01-18T19:47:51.862Z,100.00
2023-01-18T19:50:33.014Z,100.00
2023-01-18T19:53:19.832Z,100.00
2023-01-18T19:56:07.258Z,100.00
2023-01-18T19:59:07.885Z,100.00
2023-01-18T20:02:07.974Z,100.00
2023-01-18T20:05:07.843Z,100.00
2023-01-18T20:08:07.880Z,100.00
2023-01-18T20:11:07.854Z,100.00
2023-01-18T20:14:07.895Z,100.00
2023-01-18T20:17:07.890Z,100.00
2023-01-18T20:20:07.835Z,100.00
2023-01-18T20:23:07.861Z,100.00
2023-01-18T20:26:07.833Z,100.00
2023-01-18T20:29:08.865Z,100.00
2023-01-18T20:32:15.788Z,100.00
2023-01-18T20:35:16.874Z,100.00
2023-01-18T20:38:16.873Z,100.00
2023-01-18T20:41:17.835Z,100.00
2023-01-18T20:44:17.817Z,100.00
2023-01-18T20:47:17.839Z,100.00
2023-01-18T20:50:17.855Z,100.00
2023-01-18T20:53:17.841Z,100.00
2023-01-18T20:56:29.688Z,100.00
2023-01-18T20:59:29.838Z,100.00
2023-01-18T21:02:29.922Z,100.00
2023-01-18T21:05:29.818Z,100.00
2023-01-18T21:08:29.831Z,100.00
2023-01-18T21:11:29.869Z,100.00
2023-01-18T21:14:29.840Z,100.00
2023-01-18T21:17:29.829Z,100.00
2023-01-18T21:20:29.884Z,100.00
2023-01-18T21:23:33.832Z,100.00
2023-01-18T21:26:33.868Z,100.00
2023-01-18T21:29:33.869Z,100.00
2023-01-18T21:32:33.850Z,100.00
2023-01-18T21:35:35.834Z,100.00
2023-01-18T21:38:36.835Z,100.00
2023-01-18T21:41:54.824Z,100.00
2023-01-18T21:45:06.659Z,100.00
2023-01-18T21:48:06.822Z,100.00
2023-01-18T21:51:24.868Z,100.00
2023-01-18T21:54:24.825Z,100.00
2023-01-18T21:57:25.836Z,100.00
2023-01-18T22:00:25.867Z,100.00
2023-01-18T22:03:25.856Z,100.00
2023-01-18T22:06:25.823Z,100.00
2023-01-18T22:09:25.861Z,100.00
2023-01-18T22:12:25.882Z,100.00
2023-01-18T22:15:28.819Z,100.00
2023-01-18T22:18:28.871Z,100.00
2023-01-18T22:21:31.816Z,100.00
2023-01-18T22:24:31.874Z,100.00
2023-01-18T22:27:31.856Z,100.00
2023-01-18T22:30:31.862Z,100.00
2023-01-18T22:33:31.863Z,100.00
2023-01-18T22:36:31.855Z,100.00
2023-01-18T22:39:25.338Z,100.00
2023-01-18T22:42:24.820Z,100.00
2023-01-18T22:45:24.847Z,100.00
2023-01-18T22:48:24.808Z,100.00
2023-01-18T22:51:25.837Z,100.00
2023-01-18T22:54:28.870Z,100.00
2023-01-18T22:57:28.829Z,100.00
2023-01-18T23:00:28.821Z,100.00
2023-01-18T23:03:29.898Z,100.00
2023-01-18T23:06:30.865Z,100.00
2023-01-18T23:09:31.824Z,100.00
2023-01-18T23:12:31.822Z,100.00
2023-01-18T23:15:49.905Z,100.00
2023-01-18T23:18:49.832Z,100.00
2023-01-18T23:21:49.849Z,100.00
2023-01-18T23:24:50.849Z,100.00
2023-01-18T23:27:50.845Z,100.00
2023-01-18T23:30:50.919Z,100.00
2023-01-18T23:33:50.812Z,100.00
2023-01-18T23:36:50.831Z,100.00
2023-01-18T23:40:08.849Z,100.00
2023-01-18T23:43:26.859Z,100.00
2023-01-18T23:46:44.875Z,100.00
2023-01-18T23:50:02.826Z,100.00
2023-01-18T23:53:20.837Z,100.00
2023-01-18T23:56:20.838Z,100.00
2023-01-18T23:59:20.831Z,100.00
